Rabbit Lake, Canada
Current Conditions -  °F | °C
As of 2:00 PM on Saturday 25 Oct 2014 (Local Time) from CYQW Reporting Station
Broken Clouds Broken Clouds  
Wind Chill: 45°   Ceiling: 14000
Heat Index: 45°   Visibility: 9mi
Dew Point: 28°   Wind: 2mph
Humidity: 53%   Direction: NA
Pressure: 29.99"   Gusts: NA
Location:  53.13°N, 107.77°W
Report Text: CYQW 252000Z AUTO VRB02KT 9SM BKN140 07/M02 A2999 RMK SLP181
Loading
Personal Weather Stations






























Interactive Weather Map
Tropical Storm Tracking
New forecast layout! Learn more

10-Day Weather Forecast

Advertisements
Track Severe Weather on mobile